Time;durP1;ratioP1;P1;durP2;ratioP2;P2;SDS_P1;SDS_P2;PMS_P1;PMS_P2;Temp;Humidity;BMP_temperature;BMP_pressure;BME280_temperature;BME280_humidity;BME280_pressure;Samples;Min_cycle;Max_cycle;Signal;HPM_P1;HPM_P2
2022/08/27 00:01:32;;;;;;;8.75;6.28;;;20.40;99.90;;;;;;5051780;28;20500;-74
2022/08/27 00:03:58;;;;;;;9.48;5.70;;;20.40;99.90;;;;;;5053272;28;20029;-74
2022/08/27 00:06:25;;;;;;;9.00;5.68;;;20.40;99.90;;;;;;5053246;28;20029;-74
2022/08/27 00:08:51;;;;;;;7.60;5.45;;;20.30;99.90;;;;;;5052189;28;20029;-73
2022/08/27 00:11:19;;;;;;;9.10;6.22;;;20.20;99.90;;;;;;5053206;28;20029;-74
2022/08/27 00:13:45;;;;;;;12.32;6.07;;;20.10;99.90;;;;;;5051913;28;20469;-74
2022/08/27 00:16:13;;;;;;;8.68;6.05;;;20.10;99.90;;;;;;5051931;28;20029;-73
2022/08/27 00:18:40;;;;;;;9.67;6.47;;;20.00;99.90;;;;;;5056655;28;20024;-74
2022/08/27 00:21:07;;;;;;;8.35;6.55;;;20.00;99.90;;;;;;5057200;28;20286;-73
2022/08/27 00:23:34;;;;;;;13.57;6.70;;;19.90;99.90;;;;;;5056818;28;20122;-73
2022/08/27 00:26:00;;;;;;;11.60;6.80;;;19.90;99.90;;;;;;5056853;28;20036;-74
2022/08/27 00:28:27;;;;;;;11.70;6.57;;;19.80;99.90;;;;;;5056621;28;20029;-73
2022/08/27 00:30:54;;;;;;;7.32;6.53;;;19.80;99.90;;;;;;5056697;28;20078;-73
2022/08/27 00:33:21;;;;;;;10.25;6.53;;;19.70;99.90;;;;;;5056772;28;20021;-73
2022/08/27 00:35:47;;;;;;;9.23;6.53;;;19.70;99.90;;;;;;5055939;28;20068;-73
2022/08/27 00:38:13;;;;;;;12.60;5.82;;;19.70;99.90;;;;;;5056348;28;20048;-73
2022/08/27 00:40:39;;;;;;;9.38;6.05;;;19.70;99.90;;;;;;5055288;28;20460;-74
2022/08/27 00:43:05;;;;;;;7.32;6.40;;;19.60;99.90;;;;;;5056125;28;20074;-73
2022/08/27 00:45:36;;;;;;;9.93;6.05;;;19.60;99.90;;;;;;5056179;28;20029;-73
2022/08/27 00:48:03;;;;;;;9.35;6.15;;;19.60;99.90;;;;;;5055397;28;20028;-74
2022/08/27 00:50:45;;;;;;;9.30;6.93;;;19.60;99.90;;;;;;5056073;28;20520;-73
2022/08/27 00:53:18;;;;;;;10.25;5.93;;;19.70;99.90;;;;;;5054977;28;20036;-73
2022/08/27 00:55:49;;;;;;;10.15;6.05;;;19.70;99.90;;;;;;5056449;28;20090;-73
2022/08/27 00:58:30;;;;;;;10.48;6.45;;;19.70;99.90;;;;;;5056151;28;20025;-73
2022/08/27 01:00:57;;;;;;;7.43;6.18;;;19.70;99.90;;;;;;5056112;28;20029;-73
2022/08/27 01:03:25;;;;;;;9.75;6.63;;;19.70;99.90;;;;;;5054515;28;20087;-74
2022/08/27 01:05:53;;;;;;;7.20;6.07;;;19.70;99.90;;;;;;5056563;28;20021;-74
2022/08/27 01:08:23;;;;;;;7.82;6.07;;;19.70;99.90;;;;;;5056119;28;20021;-73
2022/08/27 01:10:50;;;;;;;9.88;6.13;;;19.70;99.90;;;;;;5056057;28;20021;-74
2022/08/27 01:13:20;;;;;;;9.30;5.60;;;19.60;99.90;;;;;;5054688;28;20056;-74
2022/08/27 01:15:46;;;;;;;7.72;5.85;;;19.60;99.90;;;;;;5055866;28;20035;-73
2022/08/27 01:18:13;;;;;;;13.88;6.13;;;19.60;99.90;;;;;;5054520;28;20029;-74
2022/08/27 01:21:01;;;;;;;11.18;5.28;;;19.60;99.90;;;;;;5055835;28;20025;-73
2022/08/27 01:23:49;;;;;;;9.80;6.47;;;19.50;99.90;;;;;;5055730;28;20487;-73
2022/08/27 01:26:16;;;;;;;10.30;6.65;;;19.50;99.90;;;;;;5055658;28;20013;-73
2022/08/27 01:28:43;;;;;;;9.32;5.93;;;19.40;99.90;;;;;;5055047;28;20423;-73
2022/08/27 01:31:10;;;;;;;8.55;6.05;;;19.40;99.90;;;;;;5055282;28;20484;-73
2022/08/27 01:33:37;;;;;;;7.03;6.03;;;19.40;99.90;;;;;;5055619;28;20032;-74
2022/08/27 01:36:04;;;;;;;7.35;5.95;;;19.30;99.90;;;;;;5055584;28;20032;-73
2022/08/27 01:38:30;;;;;;;9.10;6.50;;;19.30;99.90;;;;;;5055816;28;20052;-73
2022/08/27 01:40:57;;;;;;;8.52;6.63;;;19.30;99.90;;;;;;5055649;28;20072;-74
2022/08/27 01:43:23;;;;;;;14.00;6.05;;;19.20;99.90;;;;;;5055398;28;20060;-73
2022/08/27 01:45:51;;;;;;;13.30;7.15;;;19.20;99.90;;;;;;5054197;28;20457;-73
2022/08/27 01:48:19;;;;;;;8.73;5.90;;;19.10;99.90;;;;;;5055013;28;20056;-73
2022/08/27 01:50:47;;;;;;;12.38;6.70;;;19.10;99.90;;;;;;5055323;28;20033;-73
2022/08/27 01:53:30;;;;;;;8.80;6.53;;;19.00;99.90;;;;;;5054204;28;20033;-73
2022/08/27 01:55:57;;;;;;;11.43;7.22;;;19.00;99.90;;;;;;5054977;28;20047;-73
2022/08/27 01:58:26;;;;;;;9.02;6.82;;;19.00;99.90;;;;;;5053804;28;20055;-73
2022/08/27 02:00:53;;;;;;;;;;;19.00;99.90;;;;;;5054290;28;20428;-73
2022/08/27 02:03:19;;;;;;;12.52;6.43;;;19.00;99.90;;;;;;5053892;28;19917;-73
2022/08/27 02:05:47;;;;;;;8.55;6.70;;;19.00;99.90;;;;;;5058774;28;20100;-73
2022/08/27 02:08:14;;;;;;;8.95;6.10;;;19.00;99.90;;;;;;5060414;28;20126;-73
2022/08/27 02:10:42;;;;;;;12.23;6.85;;;19.00;99.90;;;;;;5054882;28;20056;-75
2022/08/27 02:13:08;;;;;;;9.60;6.15;;;19.00;99.90;;;;;;5054208;28;20057;-73
2022/08/27 02:15:35;;;;;;;7.82;6.35;;;19.10;99.90;;;;;;5055089;28;20488;-73
2022/08/27 02:18:04;;;;;;;10.88;5.85;;;19.10;99.90;;;;;;5054758;28;20021;-73
2022/08/27 02:20:30;;;;;;;9.13;6.18;;;19.10;99.90;;;;;;5054775;28;20021;-73
2022/08/27 02:22:56;;;;;;;11.57;7.43;;;19.20;99.90;;;;;;5054534;28;20035;-73
2022/08/27 02:25:22;;;;;;;11.02;6.07;;;19.20;99.90;;;;;;5054669;28;20075;-73
2022/08/27 02:27:49;;;;;;;10.23;6.45;;;19.20;99.90;;;;;;5054696;28;20029;-73
2022/08/27 02:30:19;;;;;;;10.70;6.60;;;19.20;99.90;;;;;;5055016;28;20021;-73
2022/08/27 02:32:48;;;;;;;12.15;6.55;;;19.20;99.90;;;;;;5054981;28;20032;-74
2022/08/27 02:35:15;;;;;;;;;;;19.20;99.90;;;;;;5057248;28;20036;-75
2022/08/27 02:37:42;;;;;;;10.93;5.75;;;19.20;99.90;;;;;;5057454;28;19973;-73
2022/08/27 02:40:09;;;;;;;10.40;5.93;;;19.10;99.90;;;;;;5056012;28;20401;-73
2022/08/27 02:42:34;;;;;;;9.52;6.13;;;19.10;99.90;;;;;;5056633;28;20039;-73
2022/08/27 02:45:00;;;;;;;9.20;6.53;;;19.10;99.90;;;;;;5056333;28;20415;-73
2022/08/27 02:47:26;;;;;;;10.05;5.97;;;19.10;99.90;;;;;;5055387;28;20032;-74
2022/08/27 02:49:52;;;;;;;8.82;6.30;;;19.10;99.90;;;;;;5053320;28;20035;-73
2022/08/27 02:52:18;;;;;;;7.63;6.20;;;19.10;99.90;;;;;;5054446;28;20025;-75
2022/08/27 02:54:44;;;;;;;8.98;6.18;;;19.20;99.90;;;;;;5054339;28;20036;-73
2022/08/27 02:57:11;;;;;;;8.93;5.55;;;19.10;99.90;;;;;;5054285;28;20021;-73
2022/08/27 02:59:36;;;;;;;8.35;6.53;;;19.20;99.90;;;;;;5054271;28;20032;-73
2022/08/27 03:02:02;;;;;;;8.10;5.38;;;19.10;99.90;;;;;;5054229;28;20045;-73
2022/08/27 03:04:28;;;;;;;13.27;6.20;;;19.10;99.90;;;;;;5054153;28;20045;-73
2022/08/27 03:06:55;;;;;;;12.60;7.00;;;19.10;99.90;;;;;;5052983;28;20052;-73
2022/08/27 03:09:20;;;;;;;9.55;6.22;;;19.00;99.90;;;;;;5052803;28;20060;-73
2022/08/27 03:11:46;;;;;;;6.95;5.82;;;19.00;99.90;;;;;;5053644;28;20057;-73
2022/08/27 03:14:12;;;;;;;6.75;5.90;;;19.00;99.90;;;;;;5054204;28;20036;-73
2022/08/27 03:16:38;;;;;;;9.07;6.13;;;19.00;99.90;;;;;;5054237;28;20159;-73
2022/08/27 03:19:05;;;;;;;8.63;6.53;;;19.00;99.90;;;;;;5054251;28;20025;-73
2022/08/27 03:21:32;;;;;;;8.30;6.30;;;18.90;99.90;;;;;;5053970;28;20025;-73
2022/08/27 03:24:00;;;;;;;14.25;7.28;;;18.90;99.90;;;;;;5053070;28;20029;-73
2022/08/27 03:26:30;;;;;;;12.07;7.30;;;18.90;99.90;;;;;;5052696;28;20028;-73
2022/08/27 03:28:56;;;;;;;8.65;6.55;;;18.90;99.90;;;;;;5054051;28;20475;-73
2022/08/27 03:31:28;;;;;;;12.07;6.30;;;18.80;99.90;;;;;;5053724;28;20036;-73
2022/08/27 03:34:00;;;;;;;9.93;6.95;;;18.80;99.90;;;;;;5054883;28;20063;-73
2022/08/27 03:36:28;;;;;;;9.45;5.95;;;18.80;99.90;;;;;;5054405;28;20112;-73
2022/08/27 03:38:55;;;;;;;11.27;6.53;;;18.80;99.90;;;;;;5054042;28;20021;-73
2022/08/27 03:41:21;;;;;;;10.30;6.50;;;18.70;99.90;;;;;;5054124;28;20053;-73
2022/08/27 03:43:47;;;;;;;11.27;7.10;;;18.70;99.90;;;;;;5054413;28;20037;-73
2022/08/27 03:46:13;;;;;;;11.27;7.55;;;18.70;99.90;;;;;;5053163;28;20032;-73
2022/08/27 03:48:38;;;;;;;8.18;6.82;;;18.70;99.90;;;;;;5053832;28;20029;-73
2022/08/27 03:51:07;;;;;;;11.82;6.80;;;18.70;99.90;;;;;;5053597;28;20033;-73
2022/08/27 03:53:35;;;;;;;10.52;7.18;;;18.70;99.90;;;;;;5057043;28;20051;-73
2022/08/27 03:56:01;;;;;;;10.70;7.13;;;18.70;99.90;;;;;;5056291;28;20071;-73
2022/08/27 03:58:26;;;;;;;13.10;6.85;;;18.70;99.90;;;;;;5057656;28;20037;-73
2022/08/27 04:00:52;;;;;;;11.52;7.03;;;18.60;99.90;;;;;;5057724;28;20067;-73
2022/08/27 04:03:18;;;;;;;7.70;6.90;;;18.60;99.90;;;;;;5056131;28;20052;-73
2022/08/27 04:05:44;;;;;;;10.07;7.10;;;18.60;99.90;;;;;;5057548;28;20025;-73
2022/08/27 04:08:09;;;;;;;11.00;6.70;;;18.50;99.90;;;;;;5057084;28;20025;-73
2022/08/27 04:10:38;;;;;;;9.05;6.43;;;18.50;99.90;;;;;;5056167;28;20457;-69
2022/08/27 04:13:04;;;;;;;17.30;7.28;;;18.50;99.90;;;;;;5055502;28;20032;-69
2022/08/27 04:15:30;;;;;;;10.30;6.82;;;18.50;99.90;;;;;;5055781;28;20025;-68
2022/08/27 04:17:56;;;;;;;9.25;7.30;;;18.50;99.90;;;;;;5057145;28;20108;-69
2022/08/27 04:20:21;;;;;;;10.70;7.40;;;18.50;99.90;;;;;;5057268;28;20461;-68
2022/08/27 04:22:48;;;;;;;9.52;6.95;;;18.40;99.90;;;;;;5057034;28;20029;-68
2022/08/27 04:25:13;;;;;;;8.85;7.00;;;18.40;99.90;;;;;;5056775;28;20040;-68
2022/08/27 04:27:39;;;;;;;11.70;7.53;;;18.30;99.90;;;;;;5055572;28;20029;-68
2022/08/27 04:30:08;;;;;;;14.25;8.65;;;18.30;99.90;;;;;;5056546;28;20056;-68
2022/08/27 04:32:33;;;;;;;17.35;7.57;;;18.20;99.90;;;;;;5055550;28;20029;-68
2022/08/27 04:35:00;;;;;;;9.45;7.47;;;18.20;99.90;;;;;;5055994;28;20483;-68
2022/08/27 04:37:29;;;;;;;10.02;7.20;;;18.20;99.90;;;;;;5057571;28;20104;-68
2022/08/27 04:39:55;;;;;;;12.93;7.40;;;18.20;99.90;;;;;;5057158;28;20053;-68
2022/08/27 04:42:20;;;;;;;18.73;7.20;;;18.20;99.90;;;;;;5056593;28;20138;-68
2022/08/27 04:44:47;;;;;;;13.50;8.07;;;18.20;99.90;;;;;;5056407;28;20033;-68
2022/08/27 04:47:14;;;;;;;14.18;8.40;;;18.20;99.90;;;;;;5056435;28;20028;-68
2022/08/27 04:49:40;;;;;;;13.00;7.25;;;18.20;99.90;;;;;;5055069;28;20515;-68
2022/08/27 04:52:05;;;;;;;10.00;7.30;;;18.30;99.90;;;;;;5055065;28;20071;-68
2022/08/27 04:54:32;;;;;;;15.13;7.30;;;18.40;99.90;;;;;;5056034;28;20037;-68
2022/08/27 04:56:59;;;;;;;11.32;7.53;;;18.40;99.90;;;;;;5056258;28;20025;-68
2022/08/27 04:59:25;;;;;;;10.60;7.18;;;18.50;99.90;;;;;;5056453;28;20063;-68
2022/08/27 05:01:50;;;;;;;11.65;6.90;;;18.70;99.90;;;;;;5054816;28;20424;-68
2022/08/27 05:04:17;;;;;;;12.02;7.15;;;18.80;99.90;;;;;;5053807;28;20036;-68
2022/08/27 05:06:44;;;;;;;10.38;6.70;;;18.90;99.90;;;;;;5056023;28;20401;-68
2022/08/27 05:09:14;;;;;;;11.50;6.32;;;19.00;99.90;;;;;;5055755;28;20465;-68
2022/08/27 05:11:41;;;;;;;6.88;6.05;;;19.10;99.90;;;;;;5054586;28;20033;-68
2022/08/27 05:14:09;;;;;;;8.45;5.95;;;19.30;99.90;;;;;;5054684;28;20057;-68
2022/08/27 05:16:35;;;;;;;8.88;5.95;;;19.40;99.90;;;;;;5055902;28;20078;-69
2022/08/27 05:19:04;;;;;;;9.93;6.25;;;19.50;99.90;;;;;;5054570;28;20405;-69
2022/08/27 05:21:33;;;;;;;6.82;5.45;;;19.70;99.90;;;;;;5055939;28;20021;-68
2022/08/27 05:24:00;;;;;;;10.30;5.45;;;19.80;99.90;;;;;;5055422;28;20048;-68
2022/08/27 05:26:28;;;;;;;10.45;6.03;;;20.00;99.90;;;;;;5055719;28;20105;-69
2022/08/27 05:28:53;;;;;;;9.88;4.95;;;20.10;99.90;;;;;;5055367;28;20396;-68
2022/08/27 05:31:21;;;;;;;9.27;5.63;;;20.20;99.90;;;;;;5054382;28;20021;-68
2022/08/27 05:33:47;;;;;;;9.23;5.43;;;20.40;99.90;;;;;;5055748;28;20044;-68
2022/08/27 05:36:19;;;;;;;12.23;5.50;;;20.60;99.90;;;;;;5055818;28;20083;-68
2022/08/27 05:38:47;;;;;;;5.93;5.07;;;20.70;99.90;;;;;;5054346;28;20021;-69
2022/08/27 05:41:15;;;;;;;6.82;5.72;;;20.90;99.90;;;;;;5054106;28;20029;-69
2022/08/27 05:43:42;;;;;;;6.28;4.30;;;21.00;99.90;;;;;;5054496;28;20043;-68
2022/08/27 05:46:10;;;;;;;5.47;4.88;;;21.20;99.90;;;;;;5055369;28;20061;-69
2022/08/27 05:48:37;;;;;;;7.53;4.18;;;21.40;99.90;;;;;;5054000;28;20380;-68
2022/08/27 05:51:31;;;;;;;7.32;4.75;;;21.50;99.90;;;;;;5053952;28;20039;-69
2022/08/27 05:54:00;;;;;;;8.52;4.85;;;21.60;99.90;;;;;;5052069;28;20044;-68
2022/08/27 05:56:27;;;;;;;;;;;21.70;99.90;;;;;;5055515;28;20479;-69
2022/08/27 06:01:46;;;;;;;4.50;4.10;;;21.90;99.90;;;;;;5055208;28;20082;-68
2022/08/27 06:04:13;;;;;;;5.50;3.97;;;22.00;99.90;;;;;;5053695;28;20491;-68
2022/08/27 06:06:41;;;;;;;10.10;4.28;;;22.20;99.90;;;;;;5055187;28;20063;-68
2022/08/27 06:09:08;;;;;;;7.07;4.28;;;22.30;99.90;;;;;;5054983;28;20021;-68
2022/08/27 06:11:33;;;;;;;7.95;4.53;;;22.40;99.90;;;;;;5054513;28;20033;-67
2022/08/27 06:13:59;;;;;;;6.10;4.25;;;22.50;99.90;;;;;;5054827;28;20120;-69
2022/08/27 06:16:25;;;;;;;6.07;4.38;;;22.60;99.90;;;;;;5053552;28;20021;-68
2022/08/27 06:18:50;;;;;;;6.68;4.35;;;22.80;99.90;;;;;;5054683;28;20029;-67
2022/08/27 06:21:18;;;;;;;5.85;4.05;;;23.00;99.90;;;;;;5054819;28;20032;-68
2022/08/27 06:23:44;;;;;;;6.03;3.63;;;23.20;99.90;;;;;;5054549;28;20036;-66
2022/08/27 06:26:13;;;;;;;8.15;3.50;;;23.70;99.90;;;;;;5054689;28;20086;-64
2022/08/27 06:28:40;;;;;;;5.85;3.50;;;24.00;99.90;;;;;;5054824;28;20029;-64
2022/08/27 06:31:17;;;;;;;4.38;3.47;;;24.20;99.90;;;;;;5054486;28;20025;-65
2022/08/27 06:33:45;;;;;;;6.38;3.90;;;24.30;99.90;;;;;;5054678;28;20036;-65
2022/08/27 06:36:13;;;;;;;5.82;3.58;;;24.30;99.90;;;;;;5054031;28;20100;-65
2022/08/27 06:38:39;;;;;;;5.32;4.40;;;24.20;99.90;;;;;;5054515;28;20025;-65
2022/08/27 06:41:06;;;;;;;5.15;3.42;;;24.10;99.90;;;;;;5054094;28;20392;-67
2022/08/27 06:43:36;;;;;;;5.35;3.63;;;24.00;99.90;;;;;;5053902;28;20427;-68
2022/08/27 06:46:03;;;;;;;5.30;4.03;;;23.90;99.90;;;;;;5054169;28;20108;-68
2022/08/27 06:48:29;;;;;;;4.72;3.42;;;23.90;99.90;;;;;;5054414;28;20025;-65
2022/08/27 06:50:55;;;;;;;4.63;3.38;;;23.90;99.90;;;;;;5054051;28;20111;-69
2022/08/27 06:53:21;;;;;;;4.07;3.47;;;23.90;99.90;;;;;;5054084;28;20116;-69
2022/08/27 06:55:48;;;;;;;5.28;4.15;;;24.00;99.90;;;;;;5053766;28;20112;-65
2022/08/27 06:58:14;;;;;;;6.47;3.17;;;24.10;99.90;;;;;;5053991;28;20028;-64
2022/08/27 07:00:41;;;;;;;4.60;3.65;;;24.30;99.90;;;;;;5053899;28;20033;-63
2022/08/27 07:03:07;;;;;;;5.10;3.38;;;24.50;99.90;;;;;;5054089;28;20462;-61
2022/08/27 07:05:36;;;;;;;7.10;3.92;;;24.60;99.90;;;;;;5053617;28;20061;-62
2022/08/27 07:08:02;;;;;;;7.35;3.80;;;24.70;99.90;;;;;;5054021;28;20413;-60
2022/08/27 07:10:28;;;;;;;4.07;3.67;;;24.60;99.90;;;;;;5053511;28;20032;-56
2022/08/27 07:12:54;;;;;;;4.55;3.15;;;24.70;99.90;;;;;;5053455;28;20431;-59
2022/08/27 07:15:19;;;;;;;3.55;3.25;;;24.90;99.90;;;;;;5054521;28;20025;-59
2022/08/27 07:17:45;;;;;;;3.65;3.28;;;25.20;99.90;;;;;;5035960;28;20450;-60
2022/08/27 07:20:13;;;;;;;5.20;3.53;;;25.30;99.90;;;;;;5053737;28;20484;-61
2022/08/27 07:22:39;;;;;;;3.70;3.40;;;25.20;99.90;;;;;;5053611;28;20029;-60
2022/08/27 07:25:08;;;;;;;8.00;3.92;;;25.10;99.90;;;;;;5053554;28;20029;-60
2022/08/27 07:27:34;;;;;;;4.80;4.00;;;25.00;99.90;;;;;;5052970;28;20420;-63
2022/08/27 07:30:00;;;;;;;4.10;3.17;;;25.00;99.90;;;;;;5053429;28;20025;-59
2022/08/27 07:32:25;;;;;;;6.28;3.83;;;25.00;99.90;;;;;;5052172;28;20460;-62
2022/08/27 07:34:51;;;;;;;8.10;4.13;;;25.00;99.90;;;;;;5053186;28;20032;-63
2022/08/27 07:37:17;;;;;;;6.32;3.85;;;24.90;99.90;;;;;;5053520;28;20441;-63
2022/08/27 07:39:42;;;;;;;6.85;4.15;;;24.80;99.90;;;;;;5053216;28;20037;-63
2022/08/27 07:44:52;;;;;;;4.22;3.70;;;24.60;99.90;;;;;;5053177;28;20032;-67
2022/08/27 07:47:17;;;;;;;5.53;3.95;;;24.60;99.90;;;;;;5052615;28;20033;-63
2022/08/27 07:49:43;;;;;;;6.50;4.38;;;24.70;99.90;;;;;;5053435;28;20029;-63
2022/08/27 07:52:10;;;;;;;5.03;3.90;;;24.70;99.90;;;;;;5052985;28;20111;-63
2022/08/27 07:54:36;;;;;;;6.60;4.18;;;24.70;99.90;;;;;;5052952;28;20029;-64
2022/08/27 07:57:03;;;;;;;6.18;3.65;;;24.70;99.90;;;;;;5053213;28;20116;-72
2022/08/27 07:59:29;;;;;;;6.03;3.97;;;24.70;99.90;;;;;;5052952;28;20084;-72
2022/08/27 08:01:55;;;;;;;5.32;3.97;;;24.60;99.90;;;;;;5052518;28;20476;-72
2022/08/27 08:04:22;;;;;;;5.22;3.95;;;24.60;99.90;;;;;;5053081;28;20060;-73
2022/08/27 08:06:48;;;;;;;4.85;4.22;;;24.60;99.90;;;;;;5051605;28;20033;-73
2022/08/27 08:09:14;;;;;;;6.60;3.97;;;24.70;99.90;;;;;;5051883;28;20112;-73
2022/08/27 08:11:40;;;;;;;10.80;4.22;;;24.80;99.90;;;;;;5052223;28;20056;-73
2022/08/27 08:14:06;;;;;;;4.90;3.63;;;24.90;99.90;;;;;;5053164;28;20025;-70
2022/08/27 08:16:32;;;;;;;5.07;4.10;;;25.30;99.90;;;;;;5053208;28;20076;-70
2022/08/27 08:18:59;;;;;;;6.05;3.97;;;25.50;99.90;;;;;;5053232;28;20431;-72
2022/08/27 08:21:25;;;;;;;9.75;4.22;;;26.10;99.90;;;;;;5051869;28;20021;-73
2022/08/27 08:23:51;;;;;;;4.70;3.70;;;26.80;99.90;;;;;;5052106;28;20464;-73
2022/08/27 08:26:16;;;;;;;6.82;3.90;;;27.30;99.90;;;;;;5053279;28;20035;-72
2022/08/27 08:28:43;;;;;;;7.38;4.05;;;28.00;99.90;;;;;;5052668;28;20051;-72
2022/08/27 08:31:09;;;;;;;4.47;3.50;;;28.50;98.90;;;;;;5051886;28;20024;-74
2022/08/27 08:33:36;;;;;;;6.25;4.00;;;28.70;98.00;;;;;;5051906;28;20462;-72
2022/08/27 08:36:03;;;;;;;5.90;3.70;;;29.10;96.90;;;;;;5053199;28;20427;-74
2022/08/27 08:38:28;;;;;;;6.90;4.13;;;29.20;95.90;;;;;;5053395;28;20033;-74
2022/08/27 08:40:55;;;;;;;5.45;3.70;;;29.20;95.70;;;;;;5056677;28;20037;-74
2022/08/27 08:43:41;;;;;;;6.95;3.70;;;29.20;94.90;;;;;;5055282;28;20025;-74
2022/08/27 08:46:25;;;;;;;5.30;3.85;;;29.10;94.60;;;;;;5055119;28;20057;-74
2022/08/27 08:48:56;;;;;;;6.22;4.40;;;29.10;94.60;;;;;;5055227;28;20469;-74
2022/08/27 08:51:35;;;;;;;5.30;4.00;;;28.90;94.50;;;;;;5056431;28;20025;-74
2022/08/27 08:54:02;;;;;;;6.15;3.92;;;28.60;95.20;;;;;;5056427;28;20037;-74
2022/08/27 08:56:36;;;;;;;10.50;3.55;;;28.40;95.30;;;;;;5055538;28;20024;-74
2022/08/27 08:59:28;;;;;;;5.88;4.18;;;28.60;95.60;;;;;;5056895;28;20024;-74
2022/08/27 09:01:54;;;;;;;6.53;4.30;;;28.20;96.00;;;;;;5056493;28;20045;-73
2022/08/27 09:04:24;;;;;;;9.45;4.50;;;28.20;95.40;;;;;;5054923;28;20058;-74
2022/08/27 09:06:53;;;;;;;5.25;4.18;;;28.60;95.20;;;;;;5055753;28;20048;-73
2022/08/27 09:09:29;;;;;;;8.05;4.18;;;28.80;94.10;;;;;;5055895;28;20029;-73
2022/08/27 09:12:04;;;;;;;7.97;4.30;;;28.70;94.30;;;;;;5056077;28;20021;-75
2022/08/27 09:14:50;;;;;;;8.73;4.32;;;28.20;94.50;;;;;;5054931;28;20498;-74
2022/08/27 09:17:17;;;;;;;4.78;4.25;;;27.80;95.70;;;;;;5055874;28;20033;-74
2022/08/27 09:19:43;;;;;;;8.15;4.82;;;27.90;95.50;;;;;;5054537;28;20102;-75
2022/08/27 09:22:54;;;;;;;4.70;4.30;;;28.10;95.80;;;;;;5054524;28;20029;-77
2022/08/27 09:25:24;;;;;;;6.38;4.15;;;28.50;94.40;;;;;;5054431;28;20028;-69
2022/08/27 09:27:53;;;;;;;6.85;4.53;;;29.00;94.70;;;;;;5055810;28;20052;-75
2022/08/27 09:30:24;;;;;;;8.60;4.15;;;30.00;93.60;;;;;;5071212;28;20025;-75
2022/08/27 09:33:00;;;;;;;6.03;3.90;;;30.60;91.70;;;;;;5055617;28;20025;-77
2022/08/27 09:35:33;;;;;;;5.57;4.15;;;31.20;90.40;;;;;;5055588;28;20051;-78
2022/08/27 09:38:01;;;;;;;6.60;4.03;;;31.40;87.40;;;;;;5055596;28;20047;-68
2022/08/27 09:40:35;;;;;;;;;;;30.70;88.80;;;;;;5054536;28;20037;-69
2022/08/27 09:43:15;;;;;;;5.88;4.50;;;30.20;88.80;;;;;;5055677;28;20371;-75
2022/08/27 09:46:17;;;;;;;5.18;4.68;;;29.60;90.20;;;;;;5054084;28;20033;-75
2022/08/27 09:48:43;;;;;;;5.60;4.60;;;28.80;90.80;;;;;;5046802;28;20074;-75
2022/08/27 09:51:13;;;;;;;9.68;4.18;;;28.50;91.60;;;;;;5054779;28;20029;-74
2022/08/27 09:53:39;;;;;;;6.55;4.32;;;28.60;92.60;;;;;;5055279;28;20032;-74
2022/08/27 09:56:08;;;;;;;5.95;4.60;;;28.80;92.00;;;;;;5055453;28;20029;-74
2022/08/27 09:58:51;;;;;;;7.75;5.05;;;28.60;91.90;;;;;;5055529;28;20071;-74
2022/08/27 10:01:25;;;;;;;7.18;4.53;;;29.00;91.50;;;;;;5054962;28;20110;-74
2022/08/27 10:04:06;;;;;;;7.20;4.80;;;29.40;91.10;;;;;;5055023;28;20029;-75
2022/08/27 10:06:32;;;;;;;7.75;5.13;;;29.30;90.50;;;;;;5053724;28;20025;-75
2022/08/27 10:09:31;;;;;;;5.03;4.18;;;29.30;90.60;;;;;;5053615;28;20082;-73
2022/08/27 10:12:16;;;;;;;5.35;4.80;;;29.70;89.40;;;;;;5053605;28;20029;-73
2022/08/27 10:14:48;;;;;;;5.28;4.72;;;30.00;89.20;;;;;;5055217;28;20029;-75
2022/08/27 10:17:44;;;;;;;7.97;5.15;;;30.20;88.80;;;;;;5053846;28;20036;-75
2022/08/27 10:20:58;;;;;;;7.43;4.60;;;30.20;87.20;;;;;;5054715;28;20051;-75
2022/08/27 10:23:31;;;;;;;6.65;4.75;;;30.90;87.10;;;;;;5032297;28;20116;-75
2022/08/27 10:26:17;;;;;;;5.03;4.50;;;31.20;84.90;;;;;;5032487;28;20033;-73
2022/08/27 10:29:08;;;;;;;5.28;4.03;;;31.20;83.70;;;;;;5042076;28;20036;-75
2022/08/27 10:31:53;;;;;;;5.43;4.25;;;31.10;83.10;;;;;;5053516;28;20479;-75
2022/08/27 10:34:42;;;;;;;6.43;4.53;;;31.20;81.90;;;;;;5054375;28;20072;-75
2022/08/27 10:37:45;;;;;;;10.13;4.63;;;31.30;80.50;;;;;;5053819;28;20392;-76
2022/08/27 10:40:41;;;;;;;5.40;3.85;;;31.60;79.30;;;;;;5054344;28;20515;-76
2022/08/27 10:43:07;;;;;;;6.70;4.38;;;31.80;78.30;;;;;;5054361;28;20079;-75
2022/08/27 10:45:33;;;;;;;6.50;4.05;;;31.80;77.00;;;;;;5054098;28;20504;-72
2022/08/27 10:48:17;;;;;;;5.53;4.20;;;31.80;87.10;;;;;;5053204;28;20032;-68
2022/08/27 10:50:54;;;;;;;9.32;3.78;;;33.10;80.90;;;;;;5054224;28;20032;-67
2022/08/27 10:53:34;;;;;;;5.88;3.75;;;34.90;75.90;;;;;;5054608;28;20024;-67
2022/08/27 10:56:30;;;;;;;5.13;4.07;;;35.60;72.20;;;;;;5054657;28;20025;-67
2022/08/27 10:59:20;;;;;;;6.45;3.85;;;36.00;69.10;;;;;;5054226;28;20037;-67
2022/08/27 11:02:19;;;;;;;4.20;3.85;;;36.80;65.30;;;;;;5050623;28;20052;-69
2022/08/27 11:04:53;;;;;;;5.15;3.80;;;37.40;64.60;;;;;;5054331;28;20040;-69
2022/08/27 11:07:34;;;;;;;5.70;3.40;;;37.10;61.90;;;;;;5054006;28;20473;-68
2022/08/27 11:10:17;;;;;;;5.22;3.75;;;37.20;62.10;;;;;;5054125;28;20021;-65
2022/08/27 11:12:46;;;;;;;5.35;3.22;;;37.10;59.10;;;;;;5054046;28;20025;-68
2022/08/27 11:15:21;;;;;;;5.18;3.25;;;37.70;58.30;;;;;;5052549;28;20032;-66
2022/08/27 11:18:09;;;;;;;6.43;3.25;;;37.40;57.40;;;;;;5053912;28;20028;-66
2022/08/27 11:21:18;;;;;;;5.22;3.67;;;37.80;57.80;;;;;;5053771;28;20078;-66
2022/08/27 11:23:51;;;;;;;6.03;3.17;;;37.80;57.00;;;;;;5043105;28;20039;-67
2022/08/27 11:26:17;;;;;;;3.63;2.92;;;38.20;56.50;;;;;;5052524;28;20029;-64
2022/08/27 11:29:23;;;;;;;5.97;2.90;;;38.00;55.40;;;;;;5053616;28;20087;-65
2022/08/27 11:31:55;;;;;;;6.55;3.20;;;38.10;54.70;;;;;;5052416;28;20116;-64
2022/08/27 11:34:44;;;;;;;4.57;3.47;;;38.40;51.40;;;;;;5053634;28;20111;-65
2022/08/27 11:37:22;;;;;;;5.45;3.17;;;37.60;51.80;;;;;;5051754;28;20029;-67
2022/08/27 11:40:04;;;;;;;5.32;3.58;;;37.20;52.00;;;;;;5053964;28;20025;-68
2022/08/27 11:42:40;;;;;;;8.00;3.33;;;37.30;52.60;;;;;;5052361;28;20060;-68
2022/08/27 11:45:19;;;;;;;6.47;3.10;;;37.70;50.80;;;;;;5053460;28;20122;-66
2022/08/27 11:47:53;;;;;;;7.97;3.38;;;37.60;51.30;;;;;;5052550;28;20025;-70
2022/08/27 11:50:20;;;;;;;4.32;3.03;;;37.50;51.10;;;;;;5053504;28;20368;-69
2022/08/27 11:53:01;;;;;;;4.18;3.05;;;37.10;51.40;;;;;;5053386;28;20123;-69
2022/08/27 11:55:37;;;;;;;3.70;3.22;;;37.20;52.50;;;;;;5053373;28;20028;-70
2022/08/27 11:58:18;;;;;;;5.05;3.00;;;37.50;51.30;;;;;;5053803;28;20024;-67
2022/08/27 12:00:45;;;;;;;7.85;3.15;;;37.60;50.40;;;;;;5053467;28;20064;-69
2022/08/27 12:03:10;;;;;;;4.45;3.05;;;38.00;50.80;;;;;;5053051;28;20052;-68
2022/08/27 12:05:45;;;;;;;5.28;3.05;;;38.10;49.70;;;;;;5052035;28;20029;-68
2022/08/27 12:08:21;;;;;;;4.88;3.22;;;38.00;50.00;;;;;;5053319;28;20055;-69
2022/08/27 12:10:59;;;;;;;5.10;3.55;;;37.20;51.00;;;;;;5052018;28;20029;-70
2022/08/27 12:13:34;;;;;;;3.28;2.83;;;36.80;51.50;;;;;;5055159;28;20025;-69
2022/08/27 12:16:12;;;;;;;6.45;3.63;;;36.90;51.70;;;;;;5056869;28;20044;-70
2022/08/27 12:18:56;;;;;;;4.35;2.95;;;36.90;50.80;;;;;;5056326;28;20046;-68
2022/08/27 12:21:43;;;;;;;5.47;3.55;;;36.70;51.50;;;;;;5057171;28;20025;-67
2022/08/27 12:24:27;;;;;;;7.57;3.80;;;37.00;51.30;;;;;;5055552;28;20029;-65
2022/08/27 12:26:56;;;;;;;5.07;3.00;;;37.20;50.20;;;;;;5056986;28;20091;-67
2022/08/27 12:29:45;;;;;;;5.43;3.33;;;37.30;49.80;;;;;;5055494;28;20064;-65
2022/08/27 12:32:26;;;;;;;9.52;3.40;;;36.60;51.20;;;;;;5056588;28;20025;-69
2022/08/27 12:34:58;;;;;;;5.15;3.22;;;36.00;51.40;;;;;;5056828;28;20033;-68
2022/08/27 12:37:29;;;;;;;6.40;3.47;;;35.30;52.70;;;;;;5056897;28;20068;-70
2022/08/27 12:39:59;;;;;;;6.20;3.38;;;36.00;52.50;;;;;;5057110;28;20116;-71
2022/08/27 12:42:24;;;;;;;6.05;3.40;;;36.90;51.40;;;;;;5056562;28;20044;-70
2022/08/27 12:44:55;;;;;;;4.78;3.20;;;37.90;49.90;;;;;;5056711;28;20029;-69
2022/08/27 12:47:21;;;;;;;6.13;3.65;;;38.40;48.80;;;;;;5055387;28;20115;-70
2022/08/27 12:49:59;;;;;;;5.85;3.70;;;38.50;48.40;;;;;;5056444;28;20083;-71
2022/08/27 12:52:58;;;;;;;5.25;3.35;;;38.50;47.70;;;;;;5056180;28;20448;-69
2022/08/27 12:55:35;;;;;;;6.93;3.55;;;37.80;48.70;;;;;;5056677;28;20095;-70
2022/08/27 12:58:27;;;;;;;7.35;3.30;;;38.30;48.20;;;;;;5056567;28;20057;-70
2022/08/27 13:01:14;;;;;;;6.13;3.67;;;38.80;47.20;;;;;;5056335;28;20393;-70
2022/08/27 13:03:49;;;;;;;10.98;3.85;;;38.80;46.60;;;;;;5054944;28;20116;-70
2022/08/27 13:06:23;;;;;;;7.57;3.58;;;38.40;47.40;;;;;;5055066;28;20210;-71
2022/08/27 13:08:58;;;;;;;8.23;3.63;;;37.70;46.80;;;;;;5056255;28;20029;-70
2022/08/27 13:11:29;;;;;;;5.03;3.25;;;37.60;47.80;;;;;;5054673;28;20495;-70